createdAt,value
2019-03-13T00:00:16.037Z,3.40
2019-03-13T00:04:35.861Z,2.90
2019-03-13T00:08:54.414Z,2.90
2019-03-13T00:13:12.766Z,3.50
2019-03-13T00:17:30.922Z,3.23
2019-03-13T00:21:49.091Z,4.23
2019-03-13T00:26:07.758Z,3.60
2019-03-13T00:30:26.028Z,3.67
2019-03-13T00:34:44.384Z,4.17
2019-03-13T00:39:02.525Z,4.50
2019-03-13T00:43:22.465Z,4.40
2019-03-13T00:47:40.652Z,4.70
2019-03-13T00:51:58.821Z,5.00
2019-03-13T00:56:16.905Z,4.93
2019-03-13T01:01:00.796Z,5.37
2019-03-13T01:05:40.835Z,5.63
2019-03-13T01:09:59.328Z,6.40
2019-03-13T01:14:17.571Z,5.67
2019-03-13T01:18:35.898Z,7.73
2019-03-13T01:22:54.141Z,8.37
2019-03-13T01:27:12.421Z,9.43
2019-03-13T01:32:04.634Z,10.30
2019-03-13T01:36:22.790Z,10.17
2019-03-13T01:40:40.880Z,10.60
2019-03-13T01:44:59.006Z,10.83
2019-03-13T01:49:17.620Z,11.33
2019-03-13T01:53:35.774Z,11.17
2019-03-13T01:57:54.438Z,11.23
2019-03-13T02:02:12.920Z,11.30
2019-03-13T02:06:32.121Z,11.13
2019-03-13T02:10:50.530Z,11.47
2019-03-13T02:15:11.022Z,11.07
2019-03-13T02:19:29.278Z,11.20
2019-03-13T02:23:47.467Z,11.70
2019-03-13T02:28:05.633Z,11.60
2019-03-13T02:32:23.799Z,11.00
2019-03-13T02:36:42.112Z,11.07
2019-03-13T02:41:00.243Z,10.87
2019-03-13T02:45:18.516Z,10.67
2019-03-13T02:49:36.686Z,11.17
2019-03-13T02:53:55.015Z,10.40
2019-03-13T02:58:13.623Z,10.60
2019-03-13T03:02:40.151Z,10.27
2019-03-13T03:06:58.432Z,9.90
2019-03-13T03:11:16.706Z,9.20
2019-03-13T03:15:34.724Z,9.63
2019-03-13T03:19:52.877Z,8.80
2019-03-13T03:24:11.100Z,7.37
2019-03-13T03:28:29.194Z,7.10
2019-03-13T03:32:47.433Z,6.90
2019-03-13T03:37:05.588Z,6.17
2019-03-13T03:41:23.793Z,5.90
2019-03-13T03:45:41.868Z,5.27
2019-03-13T03:50:00.128Z,4.93
2019-03-13T03:54:18.302Z,4.53
2019-03-13T03:58:36.489Z,4.40
2019-03-13T04:02:54.591Z,5.50
2019-03-13T04:07:12.742Z,4.13
2019-03-13T04:11:32.382Z,4.33
2019-03-13T04:15:51.056Z,4.13
2019-03-13T04:20:10.423Z,3.30
2019-03-13T04:24:28.484Z,3.67
2019-03-13T04:28:46.612Z,3.10
2019-03-13T04:33:04.892Z,3.30
2019-03-13T04:37:23.683Z,2.80
2019-03-13T04:41:42.086Z,3.50
2019-03-13T04:46:00.665Z,2.80
2019-03-13T04:50:19.110Z,2.57
2019-03-13T04:54:37.456Z,2.30
2019-03-13T04:58:55.941Z,2.43
2019-03-13T05:03:14.678Z,2.43
2019-03-13T05:07:32.882Z,1.80
2019-03-13T05:11:51.139Z,2.00
2019-03-13T05:16:09.550Z,2.00
2019-03-13T05:20:27.864Z,1.90
2019-03-13T05:24:46.090Z,1.83
2019-03-13T05:29:04.114Z,1.97
2019-03-13T05:33:22.284Z,1.60
2019-03-13T05:37:40.486Z,2.97
2019-03-13T05:41:58.735Z,2.00
2019-03-13T05:46:20.177Z,1.63
2019-03-13T05:50:38.453Z,1.50
2019-03-13T05:54:56.701Z,1.63
2019-03-13T05:59:15.739Z,2.13
2019-03-13T06:03:34.475Z,1.60
2019-03-13T06:07:52.698Z,1.50
2019-03-13T06:12:10.990Z,1.40
2019-03-13T06:16:30.203Z,1.30
2019-03-13T06:20:48.455Z,1.30
2019-03-13T06:25:07.742Z,2.40
2019-03-13T06:29:26.050Z,1.20
2019-03-13T06:33:45.255Z,1.40
2019-03-13T06:38:03.807Z,1.20
2019-03-13T06:42:22.018Z,1.20
2019-03-13T06:46:40.132Z,1.10
2019-03-13T06:51:01.889Z,1.00
2019-03-13T06:55:20.631Z,1.20
2019-03-13T06:59:56.911Z,2.60
2019-03-13T07:04:40.142Z,1.10
2019-03-13T07:09:20.494Z,1.10
2019-03-13T07:13:57.527Z,1.10
2019-03-13T07:18:43.476Z,1.20
2019-03-13T07:23:09.324Z,1.53
2019-03-13T07:27:36.202Z,3.10
2019-03-13T07:32:13.337Z,1.60
2019-03-13T07:36:38.764Z,5.30
2019-03-13T07:41:09.064Z,1.80
2019-03-13T07:45:45.157Z,2.13
2019-03-13T07:50:22.265Z,2.20
2019-03-13T07:55:00.590Z,2.70
2019-03-13T07:59:45.280Z,2.97
2019-03-13T08:04:24.542Z,2.60
2019-03-13T08:09:19.927Z,4.43
2019-03-13T08:13:46.542Z,11.50
2019-03-13T08:18:22.248Z,7.70
2019-03-13T08:23:17.602Z,7.00
2019-03-13T08:27:54.638Z,3.30
2019-03-13T08:32:38.923Z,3.50
2019-03-13T08:37:22.469Z,3.47
2019-03-13T08:41:54.343Z,2.63
2019-03-13T08:46:32.789Z,5.27
2019-03-13T08:51:12.987Z,3.80
2019-03-13T08:55:48.749Z,3.00
2019-03-13T09:00:32.347Z,2.63
2019-03-13T09:05:07.226Z,2.50
2019-03-13T09:09:47.724Z,2.50
2019-03-13T09:14:27.706Z,3.00
2019-03-13T09:18:54.812Z,3.10
2019-03-13T09:23:31.933Z,2.73
2019-03-13T09:28:13.905Z,3.33
2019-03-13T09:33:00.544Z,2.73
2019-03-13T09:37:38.059Z,2.80
2019-03-13T09:42:18.018Z,3.00
2019-03-13T09:47:04.716Z,4.17
2019-03-13T09:51:44.447Z,3.30
2019-03-13T09:56:25.904Z,3.27
2019-03-13T10:01:02.891Z,4.60
2019-03-13T10:05:49.061Z,3.30
2019-03-13T10:10:25.971Z,3.17
2019-03-13T10:15:08.853Z,4.73
2019-03-13T10:19:37.687Z,3.13
2019-03-13T10:24:14.691Z,4.80
2019-03-13T10:28:51.446Z,4.07
2019-03-13T10:33:37.927Z,4.37
2019-03-13T10:38:43.774Z,3.80
2019-03-13T10:43:26.108Z,3.80
2019-03-13T10:48:05.702Z,3.27
2019-03-13T10:52:57.986Z,3.47
2019-03-13T10:57:59.217Z,3.43
2019-03-13T11:03:03.448Z,3.00
2019-03-13T11:07:42.958Z,3.70
2019-03-13T11:12:24.782Z,3.50
2019-03-13T11:17:19.933Z,4.50
2019-03-13T11:21:46.533Z,4.20
2019-03-13T11:26:22.635Z,4.53
2019-03-13T11:30:59.001Z,4.57
2019-03-13T11:35:41.945Z,3.93
2019-03-13T11:40:17.759Z,5.03
2019-03-13T11:44:46.228Z,5.20
2019-03-13T11:49:32.767Z,4.53
2019-03-13T11:54:15.928Z,4.17
2019-03-13T11:58:56.169Z,4.00
2019-03-13T12:03:33.256Z,3.80
2019-03-13T12:08:09.845Z,3.10
2019-03-13T12:12:50.023Z,3.73
2019-03-13T12:17:23.821Z,3.87
2019-03-13T12:22:09.851Z,3.00
2019-03-13T12:26:58.842Z,3.63
2019-03-13T12:31:33.272Z,3.40
2019-03-13T12:36:13.393Z,3.80
2019-03-13T12:40:53.190Z,3.33
2019-03-13T12:45:33.784Z,3.17
2019-03-13T12:50:20.207Z,3.30
2019-03-13T12:54:50.688Z,4.50
2019-03-13T12:59:27.669Z,3.20
2019-03-13T13:04:09.123Z,4.17
2019-03-13T13:09:04.624Z,4.40
2019-03-13T13:13:42.097Z,3.60
2019-03-13T13:18:19.098Z,3.60
2019-03-13T13:22:37.396Z,4.13
2019-03-13T13:26:55.579Z,3.83
2019-03-13T13:31:13.587Z,2.80
2019-03-13T13:35:31.749Z,3.07
2019-03-13T13:39:50.150Z,2.70
2019-03-13T13:44:08.376Z,3.70
2019-03-13T13:48:26.615Z,3.43
2019-03-13T13:52:44.843Z,2.77
2019-03-13T13:57:02.946Z,3.80
2019-03-13T14:01:21.206Z,2.70
2019-03-13T14:05:41.117Z,2.40
2019-03-13T14:10:00.159Z,2.87
2019-03-13T14:14:18.603Z,2.47
2019-03-13T14:18:37.132Z,2.50
2019-03-13T14:22:55.403Z,5.27
2019-03-13T14:27:15.106Z,3.20
2019-03-13T14:31:33.361Z,2.80
2019-03-13T14:35:51.522Z,2.50
2019-03-13T14:40:10.853Z,2.70
2019-03-13T14:44:29.191Z,2.87
2019-03-13T14:48:47.349Z,5.10
2019-03-13T14:53:05.495Z,3.57
2019-03-13T14:57:23.621Z,3.83
2019-03-13T15:01:42.166Z,2.80
2019-03-13T15:06:00.434Z,3.20
2019-03-13T15:10:19.020Z,3.40
2019-03-13T15:14:39.327Z,3.87
2019-03-13T15:18:58.430Z,4.03
2019-03-13T15:23:16.715Z,3.00
2019-03-13T15:27:34.962Z,3.00
2019-03-13T15:31:53.418Z,3.90
2019-03-13T15:36:11.855Z,2.70
2019-03-13T15:40:30.095Z,3.40
2019-03-13T15:44:48.553Z,3.30
2019-03-13T15:49:08.088Z,3.10
2019-03-13T15:53:26.137Z,3.53
2019-03-13T15:57:44.346Z,3.27
2019-03-13T16:02:02.565Z,3.70
2019-03-13T16:06:20.734Z,3.13
2019-03-13T16:10:39.241Z,3.30
2019-03-13T16:14:57.449Z,5.13
2019-03-13T16:19:15.672Z,4.47
2019-03-13T16:23:33.857Z,4.43
2019-03-13T16:27:52.059Z,3.73
2019-03-13T16:32:13.601Z,3.20
2019-03-13T16:36:32.053Z,4.40
2019-03-13T16:40:51.324Z,3.43
2019-03-13T16:45:11.019Z,2.80
2019-03-13T16:49:29.337Z,3.30
2019-03-13T16:53:47.663Z,2.97
2019-03-13T16:58:07.206Z,4.60
2019-03-13T17:02:25.399Z,3.00
2019-03-13T17:06:43.684Z,4.10
2019-03-13T17:11:01.717Z,5.27
2019-03-13T17:15:22.619Z,3.10
2019-03-13T17:19:40.772Z,3.07
2019-03-13T17:23:58.987Z,4.10
2019-03-13T17:28:18.232Z,2.97
2019-03-13T17:32:36.496Z,3.67
2019-03-13T17:36:54.638Z,4.63
2019-03-13T17:41:13.021Z,2.20
2019-03-13T17:45:32.252Z,2.87
2019-03-13T17:49:50.579Z,2.90
2019-03-13T17:54:11.043Z,2.70
2019-03-13T17:58:29.268Z,2.27
2019-03-13T18:02:47.547Z,3.27
2019-03-13T18:07:06.550Z,2.37
2019-03-13T18:11:24.737Z,3.53
2019-03-13T18:15:43.135Z,2.97
2019-03-13T18:20:01.864Z,3.17
2019-03-13T18:24:20.935Z,3.30
2019-03-13T18:28:39.321Z,3.00
2019-03-13T18:32:58.146Z,3.30
2019-03-13T18:37:16.603Z,4.10
2019-03-13T18:41:35.031Z,5.57
2019-03-13T18:45:53.181Z,3.77
2019-03-13T18:50:12.541Z,5.77
2019-03-13T18:54:31.017Z,6.23
2019-03-13T18:58:50.009Z,4.60
2019-03-13T19:03:09.829Z,4.97
2019-03-13T19:07:28.384Z,7.10
2019-03-13T19:11:46.535Z,12.77
2019-03-13T19:16:05.017Z,12.10
2019-03-13T19:20:24.500Z,10.67
2019-03-13T19:24:42.687Z,10.90
2019-03-13T19:29:01.722Z,11.37
2019-03-13T19:33:20.139Z,12.40
2019-03-13T19:37:38.757Z,13.20
2019-03-13T19:41:57.088Z,11.90
2019-03-13T19:46:16.080Z,12.80
2019-03-13T19:50:34.189Z,14.63
2019-03-13T19:54:52.699Z,13.03
2019-03-13T19:59:11.302Z,14.03
2019-03-13T20:03:29.717Z,14.20
2019-03-13T20:07:48.418Z,14.17
2019-03-13T20:12:06.617Z,14.30
2019-03-13T20:16:27.250Z,14.80
2019-03-13T20:20:45.721Z,13.73
2019-03-13T20:25:04.102Z,5.83
2019-03-13T20:29:23.284Z,5.53
2019-03-13T20:33:42.208Z,4.90
2019-03-13T20:38:00.402Z,13.80
2019-03-13T20:42:18.710Z,15.37
2019-03-13T20:46:37.176Z,14.10
2019-03-13T20:50:55.526Z,14.00
2019-03-13T20:55:15.028Z,14.30
2019-03-13T20:59:33.476Z,13.00
2019-03-13T21:03:52.771Z,13.17
2019-03-13T21:08:11.427Z,12.50
2019-03-13T21:12:30.225Z,13.37
2019-03-13T21:16:50.321Z,11.77
2019-03-13T21:21:11.366Z,10.83
2019-03-13T21:25:31.836Z,9.80
2019-03-13T21:29:52.657Z,8.20
2019-03-13T21:34:12.092Z,6.00
2019-03-13T21:38:32.571Z,2.07
2019-03-13T21:42:54.402Z,1.63
2019-03-13T21:47:12.325Z,2.30
2019-03-13T21:51:30.683Z,1.10
2019-03-13T21:55:48.885Z,2.23
2019-03-13T22:00:12.817Z,2.50
2019-03-13T22:04:31.853Z,2.73
2019-03-13T22:08:50.094Z,2.10
2019-03-13T22:13:08.399Z,2.20
2019-03-13T22:17:27.070Z,3.10
2019-03-13T22:21:45.290Z,3.37
2019-03-13T22:26:03.315Z,1.40
2019-03-13T22:30:22.251Z,2.10
2019-03-13T22:34:40.658Z,1.37
2019-03-13T22:38:58.928Z,1.50
2019-03-13T22:43:17.117Z,1.10
2019-03-13T22:47:42.696Z,1.60
2019-03-13T22:51:55.327Z,1.57
2019-03-13T22:56:13.958Z,1.40
2019-03-13T23:01:00.165Z,1.37
2019-03-13T23:05:20.319Z,4.03
2019-03-13T23:09:38.932Z,1.60
2019-03-13T23:13:57.032Z,2.13
2019-03-13T23:18:18.057Z,2.73
2019-03-13T23:22:35.256Z,2.47
2019-03-13T23:26:53.415Z,2.47
2019-03-13T23:31:11.592Z,1.77
2019-03-13T23:35:29.841Z,1.40
2019-03-13T23:39:48.079Z,1.43
2019-03-13T23:44:06.326Z,2.20
2019-03-13T23:48:24.497Z,4.00
2019-03-13T23:52:42.571Z,1.97
2019-03-13T23:57:00.737Z,1.60
